| time (UTC) | temp F | wind direction | speed MPH | gust MPH | rain 1hr in | rain 24hr in | rain mn in | humidity % | barometer mb |
| 20260510144703 | 57 | 249 | 2.0 | 2.0 | 0.00 | 0.00 | 0.00 | 34 | 1010.0 |
| 20260510144202 | 57 | 324 | 2.0 | 2.0 | 0.00 | 0.00 | 0.00 | 37 | 1010.0 |
| 20260510143710 | 56 | 263 | 1.0 | 1.0 | 0.00 | 0.00 | 0.00 | 35 | 1010.0 |
| 20260510143202 | 55 | 354 | 2.0 | 2.0 | 0.00 | 0.00 | 0.00 | 37 | 1010.0 |
| 20260510142703 | 55 | 264 | 1.0 | 1.0 | 0.00 | 0.00 | 0.00 | 36 | 1010.0 |
| 20260510142202 | 55 | 303 | 0.0 | 0.0 | 0.00 | 0.00 | 0.00 | 38 | 1010.0 |
| 20260510141703 | 55 | 222 | 0.0 | 0.0 | 0.00 | 0.00 | 0.00 | 39 | 1010.0 |
| 20260510141202 | 55 | 324 | 2.0 | 2.0 | 0.00 | 0.00 | 0.00 | 37 | 1010.0 |
| 20260510140702 | 55 | 324 | 0.0 | 0.0 | 0.00 | 0.00 | 0.00 | 37 | 1010.0 |
| 20260510140202 | 55 | 228 | 4.0 | 5.0 | 0.00 | 0.00 | 0.00 | 38 | 1010.0 |
| 20260510135702 | 56 | 18 | 2.0 | 2.0 | 0.00 | 0.00 | 0.00 | 38 | 1010.0 |
| 20260510135202 | 55 | 211 | 0.0 | 0.0 | 0.00 | 0.00 | 0.00 | 39 | 1010.0 |
| 20260510134702 | 53 | 204 | 1.0 | 1.0 | 0.00 | 0.00 | 0.00 | 41 | 1010.0 |
| 20260510134203 | 53 | 245 | 3.0 | 4.0 | 0.00 | 0.00 | 0.00 | 41 | 1009.0 |
| 20260510133702 | 54 | 6 | 2.0 | 2.0 | 0.00 | 0.00 | 0.00 | 40 | 1009.0 |
| 20260510133202 | 54 | 312 | 2.0 | 2.0 | 0.00 | 0.00 | 0.00 | 42 | 1009.0 |
| 20260510132702 | 53 | 258 | 2.0 | 2.0 | 0.00 | 0.00 | 0.00 | 42 | 1009.0 |
| 20260510132202 | 52 | 348 | 0.0 | 0.0 | 0.00 | 0.00 | 0.00 | 43 | 1009.0 |
| 20260510131703 | 53 | 245 | 0.0 | 0.0 | 0.00 | 0.00 | 0.00 | 42 | 1009.0 |
| 20260510131204 | 52 | 12 | 0.0 | 0.0 | 0.00 | 0.00 | 0.00 | 43 | 1009.0 |
| 20260510130703 | 53 | 252 | 1.0 | 1.0 | 0.00 | 0.00 | 0.00 | 44 | 1009.0 |
| 20260510130203 | 53 | 60 | 2.0 | 2.0 | 0.00 | 0.00 | 0.00 | 42 | 1009.0 |
| 20260510125702 | 53 | 26 | 0.0 | 0.0 | 0.00 | 0.00 | 0.00 | 46 | 1009.0 |
| 20260510125202 | 51 | 43 | 0.0 | 0.0 | 0.00 | 0.00 | 0.00 | 44 | 1009.0 |
| 20260510124702 | 51 | 84 | 1.0 | 1.0 | 0.00 | 0.00 | 0.00 | 45 | 1009.0 |
| 20260510124202 | 50 | 77 | 2.0 | 2.0 | 0.00 | 0.00 | 0.00 | 45 | 1009.0 |
| 20260510123703 | 50 | 306 | 2.0 | 2.0 | 0.00 | 0.00 | 0.00 | 47 | 1009.0 |
| 20260510123202 | 50 | 12 | 2.0 | 2.0 | 0.00 | 0.00 | 0.00 | 48 | 1009.0 |
| 20260510122702 | 49 | 353 | 2.0 | 2.0 | 0.00 | 0.00 | 0.00 | 47 | 1009.0 |
| 20260510122207 | 51 | 90 | 3.0 | 3.0 | 0.00 | 0.00 | 0.00 | 49 | 1009.0 |
| 20260510121703 | 50 | 354 | 2.0 | 2.0 | 0.00 | 0.00 | 0.00 | 50 | 1009.0 |
| 20260510121204 | 49 | 42 | 0.0 | 0.0 | 0.00 | 0.00 | 0.00 | 50 | 1008.0 |
| 20260510120702 | 49 | 42 | 0.0 | 0.0 | 0.00 | 0.00 | 0.00 | 51 | 1008.0 |
| 20260510120202 | 49 | 339 | 2.0 | 2.0 | 0.00 | 0.00 | 0.00 | 52 | 1008.0 |
| 20260510115703 | 49 | 318 | 1.0 | 1.0 | 0.00 | 0.00 | 0.00 | 52 | 1008.0 |
| 20260510115203 | 48 | 348 | 2.0 | 2.0 | 0.00 | 0.00 | 0.00 | 54 | 1008.0 |
| 20260510114704 | 48 | 42 | 2.0 | 2.0 | 0.00 | 0.00 | 0.00 | 56 | 1008.0 |
| 20260510114202 | 48 | 6 | 0.0 | 0.0 | 0.00 | 0.00 | 0.00 | 59 | 1008.0 |
| 20260510113703 | 48 | 18 | 1.0 | 1.0 | 0.00 | 0.00 | 0.00 | 56 | 1008.0 |
| 20260510113202 | 47 | 18 | 0.0 | 0.0 | 0.00 | 0.00 | 0.00 | 59 | 1008.0 |
| 20260510112702 | 46 | 354 | 0.0 | 0.0 | 0.00 | 0.00 | 0.00 | 61 | 1008.0 |
| 20260510112202 | 45 | 354 | 0.0 | 0.0 | 0.00 | 0.00 | 0.00 | 66 | 1008.0 |
| 20260510111702 | 44 | 33 | 2.0 | 2.0 | 0.00 | 0.00 | 0.00 | 67 | 1008.0 |
| 20260510111202 | 43 | 354 | 0.0 | 0.0 | 0.00 | 0.00 | 0.00 | 74 | 1008.0 |
| 20260510110703 | 42 | 354 | 0.0 | 0.0 | 0.00 | 0.00 | 0.00 | 75 | 1008.0 |
| 20260510110202 | 41 | 354 | 0.0 | 0.0 | 0.00 | 0.00 | 0.00 | 77 | 1008.0 |
| 20260510105702 | 40 | 186 | 0.0 | 0.0 | 0.00 | 0.00 | 0.00 | 79 | 1008.0 |
| 20260510105203 | 40 | 204 | 0.0 | 0.0 | 0.00 | 0.00 | 0.00 | 81 | 1008.0 |
| 20260510104702 | 39 | 186 | 0.0 | 0.0 | 0.00 | 0.00 | 0.00 | 81 | 1008.0 |
| 20260510104202 | 39 | 186 | 0.0 | 0.0 | 0.00 | 0.00 | 0.00 | 80 | 1007.0 |
| 20260510103702 | 40 | 186 | 0.0 | 0.0 | 0.00 | 0.00 | 0.00 | 80 | 1007.0 |
| 20260510103202 | 40 | 186 | 0.0 | 0.0 | 0.00 | 0.00 | 0.00 | 80 | 1007.0 |
| 20260510102702 | 40 | 186 | 0.0 | 0.0 | 0.00 | 0.00 | 0.00 | 79 | 1007.0 |
| 20260510102206 | 40 | 186 | 0.0 | 0.0 | 0.00 | 0.00 | 0.00 | 78 | 1007.0 |
| 20260510101702 | 41 | 186 | 0.0 | 0.0 | 0.00 | 0.00 | 0.00 | 77 | 1007.0 |
| 20260510101202 | 41 | 192 | 0.0 | 0.0 | 0.00 | 0.00 | 0.00 | 76 | 1007.0 |
| 20260510100703 | 41 | 204 | 0.0 | 0.0 | 0.00 | 0.00 | 0.00 | 74 | 1007.0 |
| 20260510100202 | 42 | 300 | 0.0 | 0.0 | 0.00 | 0.00 | 0.00 | 72 | 1007.0 |
| 20260510095703 | 42 | 348 | 0.0 | 0.0 | 0.00 | 0.00 | 0.00 | 71 | 1007.0 |
| 20260510095202 | 43 | 354 | 0.0 | 0.0 | 0.00 | 0.00 | 0.00 | 70 | 1007.0 |
| 20260510094702 | 43 | 354 | 0.0 | 0.0 | 0.00 | 0.00 | 0.00 | 70 | 1007.0 |
| 20260510094203 | 43 | 354 | 0.0 | 0.0 | 0.00 | 0.00 | 0.00 | 70 | 1007.0 |
| 20260510093702 | 43 | 354 | 0.0 | 0.0 | 0.00 | 0.00 | 0.00 | 69 | 1007.0 |
| 20260510093203 | 42 | 354 | 0.0 | 0.0 | 0.00 | 0.00 | 0.00 | 70 | 1007.0 |
| 20260510092702 | 42 | 0 | 0.0 | 0.0 | 0.00 | 0.00 | 0.00 | 72 | 1007.0 |
| 20260510092202 | 43 | 1 | 0.0 | 0.0 | 0.00 | 0.00 | 0.00 | 71 | 1007.0 |
| 20260510091703 | 42 | 1 | 0.0 | 0.0 | 0.00 | 0.00 | 0.00 | 72 | 1007.0 |
| 20260510091203 | 42 | 1 | 0.0 | 0.0 | 0.00 | 0.00 | 0.00 | 73 | 1006.0 |
| 20260510090703 | 42 | 1 | 0.0 | 0.0 | 0.00 | 0.00 | 0.00 | 75 | 1006.0 |
| 20260510090203 | 42 | 1 | 0.0 | 0.0 | 0.00 | 0.00 | 0.00 | 74 | 1006.0 |
| 20260510085702 | 42 | 1 | 0.0 | 0.0 | 0.00 | 0.00 | 0.00 | 74 | 1006.0 |
| 20260510085202 | 43 | 1 | 0.0 | 0.0 | 0.00 | 0.00 | 0.00 | 73 | 1006.0 |
| 20260510084702 | 43 | 1 | 0.0 | 0.0 | 0.00 | 0.00 | 0.00 | 73 | 1006.0 |
| 20260510084202 | 44 | 1 | 0.0 | 0.0 | 0.00 | 0.00 | 0.00 | 72 | 1006.0 |
| 20260510083702 | 44 | 1 | 0.0 | 0.0 | 0.00 | 0.00 | 0.00 | 70 | 1006.0 |
| 20260510083203 | 44 | 1 | 0.0 | 0.0 | 0.00 | 0.00 | 0.00 | 70 | 1006.0 |
| 20260510082702 | 45 | 0 | 0.0 | 0.0 | 0.00 | 0.00 | 0.00 | 69 | 1005.0 |
| 20260510082202 | 45 | 0 | 0.0 | 0.0 | 0.00 | 0.00 | 0.00 | 67 | 1005.0 |
| 20260510081705 | 46 | 0 | 0.0 | 0.0 | 0.00 | 0.00 | 0.00 | 66 | 1005.0 |
| 20260510081203 | 46 | 0 | 0.0 | 0.0 | 0.00 | 0.00 | 0.00 | 65 | 1005.0 |
| 20260510080703 | 47 | 0 | 0.0 | 0.0 | 0.00 | 0.00 | 0.00 | 63 | 1005.0 |
| 20260510080202 | 47 | 0 | 0.0 | 0.0 | 0.00 | 0.00 | 0.00 | 62 | 1005.0 |
| 20260510075702 | 47 | 0 | 0.0 | 0.0 | 0.00 | 0.00 | 0.00 | 60 | 1005.0 |
| 20260510075203 | 48 | 348 | 0.0 | 0.0 | 0.00 | 0.00 | 0.00 | 59 | 1005.0 |
| 20260510074702 | 48 | 348 | 3.0 | 3.0 | 0.00 | 0.00 | 0.00 | 59 | 1005.0 |
| 20260510074202 | 48 | 65 | 2.0 | 2.0 | 0.00 | 0.00 | 0.00 | 57 | 1004.0 |
| 20260510073702 | 48 | 335 | 3.0 | 3.0 | 0.00 | 0.00 | 0.00 | 59 | 1004.0 |
| 20260510073202 | 48 | 340 | 0.0 | 0.0 | 0.00 | 0.00 | 0.00 | 61 | 1004.0 |
| 20260510072703 | 48 | 18 | 0.0 | 0.0 | 0.00 | 0.00 | 0.00 | 60 | 1004.0 |
| 20260510072202 | 48 | 18 | 2.0 | 2.0 | 0.00 | 0.00 | 0.00 | 63 | 1004.0 |
| 20260510071703 | 48 | 6 | 0.0 | 0.0 | 0.00 | 0.00 | 0.00 | 63 | 1004.0 |
| 20260510071202 | 47 | 18 | 0.0 | 0.0 | 0.00 | 0.00 | 0.00 | 65 | 1004.0 |
| 20260510070704 | 47 | 18 | 0.0 | 0.0 | 0.00 | 0.00 | 0.00 | 65 | 1004.0 |
| 20260510070203 | 47 | 324 | 0.0 | 0.0 | 0.00 | 0.00 | 0.00 | 67 | 1004.0 |
| 20260510065702 | 47 | 324 | 0.0 | 0.0 | 0.00 | 0.00 | 0.00 | 66 | 1004.0 |
| 20260510065202 | 46 | 294 | 0.0 | 0.0 | 0.00 | 0.00 | 0.00 | 69 | 1004.0 |
| 20260510064703 | 47 | 294 | 0.0 | 0.0 | 0.00 | 0.00 | 0.00 | 69 | 1004.0 |
| 20260510064202 | 47 | 294 | 0.0 | 0.0 | 0.00 | 0.00 | 0.00 | 67 | 1004.0 |
| 20260510063704 | 48 | 294 | 0.0 | 0.0 | 0.00 | 0.00 | 0.00 | 66 | 1004.0 |
| 20260510063202 | 48 | 294 | 0.0 | 0.0 | 0.00 | 0.00 | 0.00 | 65 | 1004.0 |
| 20260510062702 | 48 | 294 | 0.0 | 0.0 | 0.00 | 0.00 | 0.00 | 63 | 1004.0 |
| 20260510062202 | 49 | 294 | 0.0 | 0.0 | 0.00 | 0.00 | 0.00 | 62 | 1004.0 |
| 20260510061702 | 49 | 294 | 0.0 | 0.0 | 0.00 | 0.00 | 0.00 | 62 | 1004.0 |
| 20260510061203 | 50 | 294 | 0.0 | 0.0 | 0.00 | 0.00 | 0.00 | 60 | 1003.0 |
| 20260510060702 | 50 | 294 | 0.0 | 0.0 | 0.00 | 0.00 | 0.00 | 58 | 1003.0 |
| 20260510060203 | 51 | 294 | 0.0 | 0.0 | 0.00 | 0.00 | 0.00 | 57 | 1003.0 |
| 20260510055702 | 51 | 294 | 0.0 | 0.0 | 0.00 | 0.00 | 0.00 | 56 | 1003.0 |
| 20260510055202 | 52 | 294 | 0.0 | 0.0 | 0.00 | 0.00 | 0.00 | 55 | 1003.0 |
| 20260510054703 | 52 | 342 | 2.0 | 2.0 | 0.00 | 0.00 | 0.00 | 55 | 1003.0 |
| 20260510054202 | 52 | 348 | 0.0 | 0.0 | 0.00 | 0.00 | 0.00 | 55 | 1003.0 |
| 20260510053702 | 53 | 348 | 2.0 | 2.0 | 0.00 | 0.00 | 0.00 | 54 | 1003.0 |
| 20260510053202 | 53 | 348 | 0.0 | 0.0 | 0.00 | 0.00 | 0.00 | 55 | 1003.0 |
| 20260510052702 | 53 | 346 | 1.0 | 1.0 | 0.00 | 0.00 | 0.00 | 56 | 1003.0 |
| 20260510052203 | 53 | 330 | 2.0 | 2.0 | 0.00 | 0.00 | 0.00 | 56 | 1003.0 |
| 20260510051702 | 53 | 100 | 0.0 | 0.0 | 0.00 | 0.00 | 0.00 | 56 | 1003.0 |
| 20260510051203 | 53 | 18 | 0.0 | 0.0 | 0.00 | 0.00 | 0.00 | 55 | 1002.0 |
| 20260510050702 | 54 | 24 | 2.0 | 2.0 | 0.00 | 0.00 | 0.00 | 54 | 1002.0 |
| 20260510050202 | 54 | 336 | 0.0 | 0.0 | 0.00 | 0.00 | 0.00 | 56 | 1002.0 |
| 20260510045702 | 54 | 60 | 0.0 | 0.0 | 0.00 | 0.00 | 0.00 | 56 | 1002.0 |
| 20260510045202 | 55 | 0 | 2.0 | 2.0 | 0.00 | 0.00 | 0.00 | 57 | 1002.0 |
| 20260510044702 | 55 | 36 | 2.0 | 2.0 | 0.00 | 0.00 | 0.00 | 57 | 1002.0 |
| 20260510044203 | 55 | 24 | 2.0 | 2.0 | 0.00 | 0.00 | 0.00 | 57 | 1002.0 |
| 20260510043702 | 55 | 48 | 2.0 | 2.0 | 0.00 | 0.00 | 0.00 | 56 | 1002.0 |
| 20260510043203 | 55 | 72 | 2.0 | 2.0 | 0.00 | 0.00 | 0.00 | 57 | 1002.0 |
| 20260510042702 | 54 | 60 | 0.0 | 0.0 | 0.00 | 0.00 | 0.00 | 55 | 1002.0 |
| 20260510042202 | 54 | 324 | 0.0 | 0.0 | 0.00 | 0.00 | 0.00 | 56 | 1002.0 |
| 20260510041702 | 55 | 324 | 0.0 | 0.0 | 0.00 | 0.00 | 0.00 | 54 | 1002.0 |
| 20260510041203 | 55 | 324 | 0.0 | 0.0 | 0.00 | 0.00 | 0.00 | 53 | 1001.0 |
| 20260510040704 | 56 | 324 | 0.0 | 0.0 | 0.00 | 0.00 | 0.00 | 52 | 1001.0 |
| 20260510040203 | 56 | 324 | 0.0 | 0.0 | 0.00 | 0.00 | 0.00 | 51 | 1001.0 |
| 20260510035703 | 57 | 324 | 0.0 | 0.0 | 0.00 | 0.00 | 0.00 | 50 | 1001.0 |
| 20260510035204 | 57 | 30 | 0.0 | 0.0 | 0.00 | 0.00 | 0.00 | 50 | 1001.0 |
| 20260510034702 | 57 | 30 | 2.0 | 2.0 | 0.00 | 0.00 | 0.00 | 49 | 1001.0 |
| 20260510034202 | 58 | 30 | 2.0 | 2.0 | 0.00 | 0.00 | 0.00 | 48 | 1001.0 |
| 20260510033704 | 58 | 341 | 0.0 | 0.0 | 0.00 | 0.00 | 0.00 | 47 | 1001.0 |
| 20260510033203 | 58 | 252 | 1.0 | 1.0 | 0.00 | 0.00 | 0.00 | 48 | 1001.0 |
| 20260510032703 | 59 | 252 | 0.0 | 0.0 | 0.00 | 0.00 | 0.00 | 48 | 1001.0 |
| 20260510032202 | 59 | 12 | 2.0 | 2.0 | 0.00 | 0.00 | 0.00 | 47 | 1001.0 |
| 20260510031702 | 59 | 348 | 0.0 | 0.0 | 0.00 | 0.00 | 0.00 | 46 | 1001.0 |
| 20260510031203 | 59 | 6 | 2.0 | 2.0 | 0.00 | 0.00 | 0.00 | 46 | 1001.0 |
| 20260510030704 | 59 | 18 | 1.0 | 1.0 | 0.00 | 0.00 | 0.00 | 45 | 1001.0 |
| 20260510030203 | 59 | 294 | 2.0 | 2.0 | 0.00 | 0.00 | 0.00 | 44 | 1001.0 |
| 20260510025702 | 60 | 328 | 0.0 | 0.0 | 0.00 | 0.00 | 0.00 | 46 | 1000.0 |
| 20260510025202 | 60 | 336 | 0.0 | 0.0 | 0.00 | 0.00 | 0.00 | 44 | 1000.0 |
| 20260510024702 | 60 | 320 | 2.0 | 2.0 | 0.00 | 0.00 | 0.00 | 43 | 1000.0 |
| 20260510024202 | 61 | 306 | 3.0 | 3.0 | 0.00 | 0.00 | 0.00 | 43 | 1000.0 |
| 20260510023702 | 61 | 223 | 5.0 | 5.0 | 0.00 | 0.00 | 0.00 | 42 | 1000.0 |
| 20260510023203 | 61 | 309 | 2.0 | 2.0 | 0.00 | 0.00 | 0.00 | 43 | 1000.0 |
| 20260510022705 | 62 | 234 | 2.0 | 2.0 | 0.00 | 0.00 | 0.00 | 45 | 999.0 |
| 20260510022202 | 62 | 318 | 2.0 | 2.0 | 0.00 | 0.00 | 0.00 | 44 | 999.0 |
| 20260510021702 | 62 | 348 | 3.0 | 3.0 | 0.00 | 0.00 | 0.00 | 47 | 999.0 |
| 20260510021203 | 62 | 330 | 2.0 | 2.0 | 0.00 | 0.00 | 0.00 | 48 | 999.0 |
| 20260510020702 | 62 | 306 | 0.0 | 0.0 | 0.00 | 0.00 | 0.00 | 47 | 999.0 |
| 20260510020202 | 62 | 300 | 0.0 | 0.0 | 0.00 | 0.00 | 0.00 | 48 | 999.0 |
| 20260510015702 | 62 | 294 | 0.0 | 0.0 | 0.00 | 0.00 | 0.00 | 48 | 998.0 |
| 20260510015202 | 62 | 324 | 0.0 | 0.0 | 0.00 | 0.00 | 0.00 | 48 | 998.0 |
| 20260510014703 | 61 | 330 | 2.0 | 2.0 | 0.00 | 0.00 | 0.00 | 49 | 998.0 |
| 20260510014203 | 60 | 300 | 2.0 | 2.0 | 0.00 | 0.00 | 0.00 | 50 | 998.0 |
| 20260510013702 | 59 | 300 | 0.0 | 0.0 | 0.00 | 0.00 | 0.00 | 53 | 998.0 |
| 20260510013202 | 59 | 300 | 0.0 | 0.0 | 0.00 | 0.00 | 0.00 | 55 | 998.0 |
| 20260510012702 | 60 | 300 | 0.0 | 0.0 | 0.00 | 0.00 | 0.00 | 53 | 998.0 |
| 20260510012203 | 60 | 300 | 0.0 | 0.0 | 0.00 | 0.00 | 0.00 | 51 | 998.0 |
| 20260510011702 | 60 | 300 | 0.0 | 0.0 | 0.00 | 0.00 | 0.00 | 50 | 998.0 |
| 20260510011203 | 61 | 300 | 0.0 | 0.0 | 0.00 | 0.00 | 0.00 | 49 | 997.0 |
| 20260510010702 | 61 | 300 | 0.0 | 0.0 | 0.00 | 0.00 | 0.00 | 48 | 997.0 |
| 20260510010203 | 62 | 300 | 0.0 | 0.0 | 0.00 | 0.00 | 0.00 | 47 | 997.0 |
| 20260510005702 | 62 | 300 | 0.0 | 0.0 | 0.00 | 0.00 | 0.00 | 47 | 997.0 |
| 20260510005203 | 63 | 294 | 0.0 | 0.0 | 0.00 | 0.00 | 0.00 | 44 | 997.0 |
| 20260510004702 | 64 | 258 | 0.0 | 0.0 | 0.00 | 0.00 | 0.00 | 44 | 997.0 |
| 20260510004202 | 64 | 258 | 2.0 | 2.0 | 0.00 | 0.00 | 0.00 | 43 | 997.0 |
| 20260510003702 | 64 | 312 | 0.0 | 0.0 | 0.00 | 0.00 | 0.00 | 43 | 997.0 |
| 20260510003203 | 65 | 308 | 0.0 | 0.0 | 0.00 | 0.00 | 0.00 | 42 | 997.0 |
| 20260510002702 | 65 | 330 | 2.0 | 2.0 | 0.00 | 0.00 | 0.00 | 40 | 997.0 |
| 20260510001712 | 65 | 240 | 0.0 | 0.0 | 0.00 | 0.00 | 0.00 | 41 | 997.0 |
| 20260510001203 | 66 | 240 | 2.0 | 2.0 | 0.00 | 0.00 | 0.00 | 39 | 997.0 |
| 20260510000703 | 66 | 296 | 2.0 | 2.0 | 0.00 | 0.00 | 0.00 | 39 | 997.0 |
| 20260510000204 | 67 | 238 | 2.0 | 2.0 | 0.00 | 0.00 | 0.00 | 38 | 997.0 |
| 20260509235702 | 67 | 282 | 2.0 | 2.0 | 0.00 | 0.00 | 0.00 | 37 | 996.0 |
| 20260509235202 | 67 | 251 | 2.0 | 2.0 | 0.00 | 0.00 | 0.00 | 38 | 996.0 |
| 20260509234703 | 67 | 228 | 3.0 | 4.0 | 0.00 | 0.00 | 0.00 | 37 | 996.0 |
| 20260509234202 | 67 | 246 | 3.0 | 3.0 | 0.00 | 0.00 | 0.00 | 37 | 997.0 |
| 20260509233702 | 67 | 282 | 3.0 | 3.0 | 0.00 | 0.00 | 0.00 | 36 | 997.0 |
| 20260509233202 | 67 | 234 | 5.0 | 6.0 | 0.00 | 0.00 | 0.00 | 37 | 997.0 |
| 20260509232703 | 68 | 249 | 7.0 | 7.0 | 0.00 | 0.00 | 0.00 | 37 | 996.0 |
| 20260509232202 | 68 | 251 | 2.0 | 2.0 | 0.00 | 0.00 | 0.00 | 37 | 996.0 |
| 20260509231703 | 68 | 300 | 2.0 | 2.0 | 0.00 | 0.00 | 0.00 | 35 | 996.0 |
| 20260509231202 | 68 | 182 | 2.0 | 2.0 | 0.00 | 0.00 | 0.00 | 35 | 996.0 |
| 20260509230702 | 68 | 110 | 3.0 | 3.0 | 0.00 | 0.00 | 0.00 | 35 | 996.0 |
| 20260509230203 | 69 | 240 | 4.0 | 4.0 | 0.00 | 0.00 | 0.00 | 35 | 996.0 |
| 20260509225703 | 69 | 226 | 3.0 | 3.0 | 0.00 | 0.00 | 0.00 | 34 | 996.0 |
| 20260509225202 | 69 | 265 | 5.0 | 6.0 | 0.00 | 0.00 | 0.00 | 34 | 996.0 |
| 20260509224702 | 69 | 307 | 2.0 | 2.0 | 0.00 | 0.00 | 0.00 | 34 | 996.0 |
| 20260509224202 | 69 | 14 | 3.0 | 3.0 | 0.00 | 0.00 | 0.00 | 34 | 996.0 |
| 20260509223703 | 69 | 256 | 3.0 | 3.0 | 0.00 | 0.00 | 0.00 | 35 | 996.0 |
| 20260509223203 | 70 | 264 | 3.0 | 3.0 | 0.00 | 0.00 | 0.00 | 34 | 996.0 |
| 20260509222702 | 69 | 186 | 4.0 | 5.0 | 0.00 | 0.00 | 0.00 | 34 | 995.0 |
| 20260509222202 | 69 | 269 | 3.0 | 3.0 | 0.00 | 0.00 | 0.00 | 34 | 995.0 |
| 20260509221702 | 70 | 346 | 2.0 | 2.0 | 0.00 | 0.00 | 0.00 | 34 | 995.0 |
| 20260509221202 | 70 | 228 | 6.0 | 7.0 | 0.00 | 0.00 | 0.00 | 31 | 995.0 |
| 20260509220703 | 70 | 208 | 6.0 | 7.0 | 0.00 | 0.00 | 0.00 | 32 | 995.0 |
| 20260509220204 | 70 | 157 | 4.0 | 5.0 | 0.00 | 0.00 | 0.00 | 34 | 995.0 |
| 20260509215702 | 71 | 295 | 2.0 | 2.0 | 0.00 | 0.00 | 0.00 | 34 | 995.0 |
| 20260509215202 | 70 | 234 | 3.0 | 3.0 | 0.00 | 0.00 | 0.00 | 35 | 995.0 |
| 20260509214702 | 70 | 42 | 2.0 | 2.0 | 0.00 | 0.00 | 0.00 | 37 | 995.0 |
| 20260509214202 | 70 | 246 | 3.0 | 4.0 | 0.00 | 0.00 | 0.00 | 36 | 995.0 |
| 20260509213703 | 70 | 256 | 9.0 | 10.0 | 0.00 | 0.00 | 0.00 | 37 | 995.0 |
| 20260509213204 | 70 | 256 | 4.0 | 4.0 | 0.00 | 0.00 | 0.00 | 37 | 995.0 |
| 20260509212704 | 70 | 235 | 4.0 | 5.0 | 0.00 | 0.00 | 0.00 | 39 | 995.0 |
| 20260509212202 | 70 | 307 | 1.0 | 1.0 | 0.00 | 0.00 | 0.00 | 39 | 995.0 |
| 20260509211702 | 69 | 228 | 3.0 | 4.0 | 0.00 | 0.00 | 0.00 | 39 | 995.0 |
| 20260509211202 | 69 | 359 | 2.0 | 2.0 | 0.00 | 0.00 | 0.00 | 39 | 995.0 |
| 20260509210702 | 69 | 259 | 3.0 | 3.0 | 0.00 | 0.00 | 0.00 | 41 | 995.0 |
| 20260509210202 | 69 | 247 | 0.0 | 0.0 | 0.00 | 0.00 | 0.00 | 43 | 995.0 |
| 20260509205702 | 69 | 240 | 3.0 | 3.0 | 0.00 | 0.00 | 0.00 | 43 | 995.0 |
| 20260509205202 | 69 | 268 | 4.0 | 4.0 | 0.00 | 0.00 | 0.00 | 42 | 995.0 |
| 20260509204703 | 69 | 342 | 3.0 | 3.0 | 0.00 | 0.00 | 0.00 | 45 | 995.0 |
| 20260509204203 | 69 | 306 | 6.0 | 6.0 | 0.00 | 0.00 | 0.00 | 43 | 995.0 |
| 20260509203702 | 69 | 233 | 7.0 | 7.0 | 0.00 | 0.00 | 0.00 | 46 | 995.0 |
| 20260509203203 | 68 | 272 | 2.0 | 2.0 | 0.00 | 0.00 | 0.00 | 48 | 995.0 |
| 20260509202702 | 68 | 333 | 3.0 | 4.0 | 0.00 | 0.00 | 0.00 | 52 | 996.0 |
| 20260509202202 | 67 | 96 | 0.0 | 0.0 | 0.00 | 0.00 | 0.00 | 55 | 996.0 |
| 20260509201702 | 66 | 282 | 2.0 | 2.0 | 0.00 | 0.00 | 0.00 | 64 | 996.0 |
| 20260509201202 | 66 | 288 | 2.0 | 2.0 | 0.00 | 0.00 | 0.00 | 69 | 996.0 |
| 20260509200702 | 67 | 353 | 2.0 | 2.0 | 0.00 | 0.00 | 0.00 | 73 | 996.0 |
| 20260509200203 | 66 | 300 | 2.0 | 2.0 | 0.00 | 0.00 | 0.00 | 71 | 996.0 |
| 20260509195703 | 64 | 250 | 2.0 | 2.0 | 0.00 | 0.00 | 0.00 | 76 | 995.0 |
| 20260509195202 | 62 | 348 | 1.0 | 1.0 | 0.00 | 0.00 | 0.00 | 83 | 995.0 |
| 20260509194702 | 61 | 276 | 2.0 | 2.0 | 0.00 | 0.00 | 0.00 | 82 | 995.0 |
| 20260509194202 | 60 | 296 | 2.0 | 2.0 | 0.00 | 0.00 | 0.00 | 84 | 995.0 |
| 20260509193702 | 58 | 302 | 2.0 | 2.0 | 0.00 | 0.00 | 0.00 | 87 | 995.0 |
| 20260509193203 | 57 | 155 | 2.0 | 2.0 | 0.00 | 0.00 | 0.00 | 88 | 995.0 |
| 20260509192706 | 56 | 249 | 3.0 | 3.0 | 0.00 | 0.00 | 0.00 | 89 | 996.0 |
| 20260509192202 | 56 | 252 | 2.0 | 2.0 | 0.00 | 0.00 | 0.00 | 88 | 996.0 |
| 20260509191703 | 56 | 312 | 3.0 | 3.0 | 0.00 | 0.00 | 0.00 | 87 | 996.0 |
| 20260509191202 | 58 | 318 | 5.0 | 6.0 | 0.00 | 0.00 | 0.00 | 81 | 995.0 |
| 20260509190703 | 64 | 234 | 2.0 | 2.0 | 0.00 | 0.00 | 0.00 | 63 | 995.0 |
| 20260509190203 | 65 | 258 | 0.0 | 0.0 | 0.00 | 0.00 | 0.00 | 61 | 995.0 |
| 20260509185703 | 64 | 289 | 2.0 | 2.0 | 0.00 | 0.00 | 0.00 | 63 | 995.0 |
| 20260509185202 | 63 | 249 | 2.0 | 2.0 | 0.00 | 0.00 | 0.00 | 68 | 995.0 |
| 20260509184704 | 64 | 252 | 3.0 | 3.0 | 0.00 | 0.00 | 0.00 | 65 | 995.0 |
| 20260509184202 | 65 | 228 | 3.0 | 3.0 | 0.00 | 0.00 | 0.00 | 62 | 995.0 |
| 20260509183702 | 69 | 244 | 3.0 | 3.0 | 0.00 | 0.00 | 0.00 | 49 | 995.0 |
| 20260509183203 | 69 | 216 | 2.0 | 2.0 | 0.00 | 0.00 | 0.00 | 49 | 995.0 |
| 20260509182702 | 69 | 247 | 4.0 | 4.0 | 0.00 | 0.00 | 0.00 | 48 | 995.0 |
| 20260509182203 | 71 | 282 | 4.0 | 5.0 | 0.00 | 0.00 | 0.00 | 48 | 995.0 |
| 20260509181702 | 71 | 300 | 2.0 | 2.0 | 0.00 | 0.00 | 0.00 | 48 | 995.0 |
| 20260509181204 | 70 | 282 | 6.0 | 6.0 | 0.00 | 0.00 | 0.00 | 47 | 995.0 |
| 20260509180702 | 70 | 216 | 2.0 | 2.0 | 0.00 | 0.00 | 0.00 | 48 | 995.0 |
| 20260509180203 | 70 | 306 | 3.0 | 4.0 | 0.00 | 0.00 | 0.00 | 46 | 995.0 |
| 20260509175702 | 69 | 276 | 2.0 | 2.0 | 0.00 | 0.00 | 0.00 | 48 | 995.0 |
| 20260509175202 | 69 | 265 | 2.0 | 2.0 | 0.00 | 0.00 | 0.00 | 49 | 995.0 |
| 20260509174704 | 69 | 263 | 2.0 | 2.0 | 0.00 | 0.00 | 0.00 | 48 | 995.0 |
| 20260509174204 | 69 | 66 | 3.0 | 3.0 | 0.00 | 0.00 | 0.00 | 46 | 995.0 |
| 20260509173702 | 69 | 246 | 5.0 | 6.0 | 0.00 | 0.00 | 0.00 | 48 | 995.0 |
| 20260509173202 | 69 | 226 | 4.0 | 5.0 | 0.00 | 0.00 | 0.00 | 48 | 995.0 |
| 20260509172702 | 70 | 204 | 3.0 | 3.0 | 0.00 | 0.00 | 0.00 | 47 | 995.0 |
| 20260509172205 | 70 | 42 | 3.0 | 4.0 | 0.00 | 0.00 | 0.00 | 47 | 995.0 |
| 20260509171704 | 70 | 210 | 5.0 | 6.0 | 0.00 | 0.00 | 0.00 | 48 | 995.0 |
| 20260509171203 | 69 | 262 | 4.0 | 4.0 | 0.00 | 0.00 | 0.00 | 50 | 995.0 |
| 20260509170702 | 68 | 256 | 5.0 | 5.0 | 0.00 | 0.00 | 0.00 | 49 | 995.0 |
| 20260509170202 | 68 | 245 | 3.0 | 3.0 | 0.00 | 0.00 | 0.00 | 50 | 995.0 |
| 20260509165702 | 68 | 235 | 4.0 | 5.0 | 0.00 | 0.00 | 0.00 | 49 | 996.0 |
| 20260509165202 | 68 | 30 | 5.0 | 5.0 | 0.00 | 0.00 | 0.00 | 49 | 996.0 |
| 20260509164702 | 68 | 234 | 4.0 | 4.0 | 0.00 | 0.00 | 0.00 | 48 | 996.0 |
| 20260509164203 | 67 | 228 | 4.0 | 4.0 | 0.00 | 0.00 | 0.00 | 49 | 996.0 |
| 20260509163702 | 69 | 257 | 9.0 | 12.0 | 0.00 | 0.00 | 0.00 | 50 | 996.0 |
| 20260509163203 | 69 | 283 | 4.0 | 4.0 | 0.00 | 0.00 | 0.00 | 53 | 996.0 |
| 20260509162702 | 68 | 236 | 2.0 | 2.0 | 0.00 | 0.00 | 0.00 | 52 | 996.0 |
| 20260509162203 | 67 | 282 | 5.0 | 5.0 | 0.00 | 0.00 | 0.00 | 51 | 996.0 |
| 20260509161703 | 67 | 138 | 3.0 | 3.0 | 0.00 | 0.00 | 0.00 | 59 | 996.0 |
| 20260509161204 | 67 | 251 | 3.0 | 4.0 | 0.00 | 0.00 | 0.00 | 57 | 996.0 |
| 20260509160702 | 68 | 222 | 4.0 | 4.0 | 0.00 | 0.00 | 0.00 | 55 | 996.0 |
| 20260509160203 | 67 | 242 | 4.0 | 4.0 | 0.00 | 0.00 | 0.00 | 57 | 996.0 |
| 20260509155703 | 69 | 250 | 3.0 | 4.0 | 0.00 | 0.00 | 0.00 | 56 | 996.0 |
| 20260509155202 | 68 | 247 | 3.0 | 4.0 | 0.00 | 0.00 | 0.00 | 56 | 996.0 |
| 20260509154702 | 67 | 247 | 2.0 | 2.0 | 0.00 | 0.00 | 0.00 | 59 | 996.0 |
| 20260509154202 | 68 | 247 | 2.0 | 2.0 | 0.00 | 0.00 | 0.00 | 58 | 996.0 |
| 20260509153702 | 67 | 246 | 4.0 | 4.0 | 0.00 | 0.00 | 0.00 | 59 | 996.0 |
| 20260509153203 | 68 | 216 | 2.0 | 2.0 | 0.00 | 0.00 | 0.00 | 57 | 996.0 |
| 20260509152702 | 67 | 220 | 3.0 | 3.0 | 0.00 | 0.00 | 0.00 | 58 | 997.0 |
| 20260509152203 | 66 | 216 | 0.0 | 0.0 | 0.00 | 0.00 | 0.00 | 63 | 997.0 |
| 20260509151704 | 65 | 252 | 2.0 | 2.0 | 0.00 | 0.00 | 0.00 | 64 | 997.0 |
| 20260509151202 | 65 | 268 | 2.0 | 2.0 | 0.00 | 0.00 | 0.00 | 64 | 997.0 |
| 20260509150704 | 65 | 254 | 3.0 | 3.0 | 0.00 | 0.00 | 0.00 | 63 | 997.0 |
| 20260509150203 | 64 | 288 | 2.0 | 2.0 | 0.00 | 0.00 | 0.00 | 64 | 997.0 |
| 20260509145702 | 64 | 210 | 4.0 | 4.0 | 0.00 | 0.00 | 0.00 | 64 | 997.0 |
| 20260509145202 | 64 | 204 | 3.0 | 3.0 | 0.00 | 0.00 | 0.00 | 66 | 997.0 |